sensor_id;sensor_type;location;lat;lon;timestamp;pressure;altitude;pressure_sealevel;temperature;humidity
77639;BME280;66802;52.574;14.398;2023-04-15T03:01:30;100581.03;;;8.04;88.53
77639;BME280;66802;52.574;14.398;2023-04-15T03:03:55;100583.84;;;8.02;88.25
77639;BME280;66802;52.574;14.398;2023-04-15T03:06:21;100588.25;;;8.03;88.66
77639;BME280;66802;52.574;14.398;2023-04-15T03:08:46;100589.94;;;8.04;88.40
77639;BME280;66802;52.574;14.398;2023-04-15T03:11:14;100592.91;;;8.01;88.53
77639;BME280;66802;52.574;14.398;2023-04-15T03:13:39;100590.94;;;8.03;88.73
77639;BME280;66802;52.574;14.398;2023-04-15T03:16:06;100585.81;;;8.00;88.86
77639;BME280;66802;52.574;14.398;2023-04-15T03:18:31;100597.44;;;8.11;88.70
77639;BME280;66802;52.574;14.398;2023-04-15T03:20:57;100591.22;;;8.20;88.93
77639;BME280;66802;52.574;14.398;2023-04-15T03:23:22;100592.91;;;8.30;88.46
77639;BME280;66802;52.574;14.398;2023-04-15T03:25:48;100592.47;;;8.45;87.54
77639;BME280;66802;52.574;14.398;2023-04-15T03:28:14;100591.63;;;8.54;87.22
77639;BME280;66802;52.574;14.398;2023-04-15T03:30:39;100592.84;;;8.69;86.05
77639;BME280;66802;52.574;14.398;2023-04-15T03:33:05;100594.78;;;8.76;85.56
77639;BME280;66802;52.574;14.398;2023-04-15T03:35:31;100589.31;;;8.68;85.88
77639;BME280;66802;52.574;14.398;2023-04-15T03:37:56;100594.78;;;8.76;85.48
77639;BME280;66802;52.574;14.398;2023-04-15T03:40:22;100588.03;;;8.72;85.22
77639;BME280;66802;52.574;14.398;2023-04-15T03:42:48;100583.38;;;8.65;85.53
77639;BME280;66802;52.574;14.398;2023-04-15T03:45:13;100588.03;;;8.72;84.82
77639;BME280;66802;52.574;14.398;2023-04-15T03:47:39;100596.25;;;8.71;84.88
77639;BME280;66802;52.574;14.398;2023-04-15T03:50:05;100592.38;;;8.83;83.97
77639;BME280;66802;52.574;14.398;2023-04-15T03:52:31;100599.19;;;8.77;84.16
77639;BME280;66802;52.574;14.398;2023-04-15T03:54:57;100594.97;;;8.65;84.67
77639;BME280;66802;52.574;14.398;2023-04-15T03:57:22;100595.69;;;8.67;84.39
77639;BME280;66802;52.574;14.398;2023-04-15T03:59:48;100598.78;;;8.72;84.00
77639;BME280;66802;52.574;14.398;2023-04-15T04:02:13;100601.78;;;8.69;83.72
77639;BME280;66802;52.574;14.398;2023-04-15T04:04:39;100599.22;;;8.68;83.95
77639;BME280;66802;52.574;14.398;2023-04-15T04:07:04;100602.19;;;8.74;83.43
77639;BME280;66802;52.574;14.398;2023-04-15T04:09:30;100602.88;;;8.76;83.67
77639;BME280;66802;52.574;14.398;2023-04-15T04:11:56;100600.19;;;8.76;83.50
77639;BME280;66802;52.574;14.398;2023-04-15T04:14:22;100600.19;;;8.76;83.63
77639;BME280;66802;52.574;14.398;2023-04-15T04:16:53;100604.16;;;8.82;82.94
77639;BME280;66802;52.574;14.398;2023-04-15T04:19:19;100606.84;;;8.82;82.87
77639;BME280;66802;52.574;14.398;2023-04-15T04:21:45;100614.22;;;8.80;82.65
77639;BME280;66802;52.574;14.398;2023-04-15T04:24:11;100610.53;;;8.81;82.47
77639;BME280;66802;52.574;14.398;2023-04-15T04:26:36;100611.78;;;8.87;82.06
77639;BME280;66802;52.574;14.398;2023-04-15T04:29:02;100611.94;;;8.85;82.58
77639;BME280;66802;52.574;14.398;2023-04-15T04:31:28;100610.38;;;8.83;82.26
77639;BME280;66802;52.574;14.398;2023-04-15T04:33:53;100610.94;;;8.76;82.92
77639;BME280;66802;52.574;14.398;2023-04-15T04:36:19;100612.81;;;8.76;82.90
77639;BME280;66802;52.574;14.398;2023-04-15T04:38:44;100614.09;;;8.72;82.90
77639;BME280;66802;52.574;14.398;2023-04-15T04:41:10;100617.88;;;8.79;82.48
77639;BME280;66802;52.574;14.398;2023-04-15T04:43:36;100613.63;;;8.76;82.66
77639;BME280;66802;52.574;14.398;2023-04-15T04:46:01;100627.66;;;8.80;82.68
77639;BME280;66802;52.574;14.398;2023-04-15T04:48:27;100631.06;;;8.82;82.48
77639;BME280;66802;52.574;14.398;2023-04-15T04:50:52;100627.53;;;8.82;82.21
77639;BME280;66802;52.574;14.398;2023-04-15T04:53:18;100618.03;;;8.77;82.44
77639;BME280;66802;52.574;14.398;2023-04-15T04:55:44;100624.81;;;8.82;82.21
77639;BME280;66802;52.574;14.398;2023-04-15T04:58:09;100628.38;;;8.82;82.53
77639;BME280;66802;52.574;14.398;2023-04-15T05:00:35;100632.31;;;8.88;81.82
77639;BME280;66802;52.574;14.398;2023-04-15T05:03:03;100621.84;;;8.85;82.44
77639;BME280;66802;52.574;14.398;2023-04-15T05:05:28;100633.16;;;8.88;82.01
77639;BME280;66802;52.574;14.398;2023-04-15T05:07:54;100618.16;;;8.86;82.57
77639;BME280;66802;52.574;14.398;2023-04-15T05:10:19;100625.78;;;8.90;82.36
77639;BME280;66802;52.574;14.398;2023-04-15T05:12:45;100624.09;;;8.89;82.30
77639;BME280;66802;52.574;14.398;2023-04-15T05:15:11;100631.03;;;8.92;82.40
77639;BME280;66802;52.574;14.398;2023-04-15T05:17:37;100635.00;;;8.88;82.25
77639;BME280;66802;52.574;14.398;2023-04-15T05:20:03;100627.63;;;8.90;82.34
77639;BME280;66802;52.574;14.398;2023-04-15T05:22:28;100634.00;;;8.89;82.58
77639;BME280;66802;52.574;14.398;2023-04-15T05:24:54;100635.16;;;8.86;83.30
77639;BME280;66802;52.574;14.398;2023-04-15T05:27:20;100632.84;;;9.01;82.21
77639;BME280;66802;52.574;14.398;2023-04-15T05:29:47;100637.50;;;8.99;82.32
77639;BME280;66802;52.574;14.398;2023-04-15T05:32:13;100640.78;;;9.02;82.11
77639;BME280;66802;52.574;14.398;2023-04-15T05:34:38;100635.41;;;8.93;83.53
77639;BME280;66802;52.574;14.398;2023-04-15T05:37:04;100638.41;;;8.90;83.31
77639;BME280;66802;52.574;14.398;2023-04-15T05:39:30;100641.81;;;8.92;82.91
77639;BME280;66802;52.574;14.398;2023-04-15T05:41:56;100643.06;;;8.88;83.30
77639;BME280;66802;52.574;14.398;2023-04-15T05:44:22;100637.41;;;8.91;83.50
77639;BME280;66802;52.574;14.398;2023-04-15T05:46:48;100636.16;;;8.85;84.42
77639;BME280;66802;52.574;14.398;2023-04-15T05:49:13;100642.09;;;8.89;83.75
77639;BME280;66802;52.574;14.398;2023-04-15T05:51:39;100641.81;;;8.92;83.98
77639;BME280;66802;52.574;14.398;2023-04-15T05:54:04;100649.88;;;8.92;84.11
77639;BME280;66802;52.574;14.398;2023-04-15T05:56:31;100647.03;;;8.93;84.20
77639;BME280;66802;52.574;14.398;2023-04-15T05:58:56;100646.91;;;8.95;84.13
77639;BME280;66802;52.574;14.398;2023-04-15T06:01:22;100649.03;;;8.91;84.61
77639;BME280;66802;52.574;14.398;2023-04-15T06:03:48;100649.88;;;8.92;84.43
77639;BME280;66802;52.574;14.398;2023-04-15T06:06:14;100645.47;;;8.91;84.49
77639;BME280;66802;52.574;14.398;2023-04-15T06:08:40;100645.47;;;8.91;84.66
77639;BME280;66802;52.574;14.398;2023-04-15T06:11:06;100647.19;;;8.92;84.98
77639;BME280;66802;52.574;14.398;2023-04-15T06:13:31;100649.75;;;8.84;84.91
77639;BME280;66802;52.574;14.398;2023-04-15T06:15:58;100656.25;;;8.91;85.06
77639;BME280;66802;52.574;14.398;2023-04-15T06:18:24;100651.97;;;8.98;85.04
77639;BME280;66802;52.574;14.398;2023-04-15T06:20:49;100651.97;;;8.98;85.02
77639;BME280;66802;52.574;14.398;2023-04-15T06:23:15;100663.91;;;8.95;84.95
77639;BME280;66802;52.574;14.398;2023-04-15T06:25:41;100664.03;;;8.94;85.29
77639;BME280;66802;52.574;14.398;2023-04-15T06:28:07;100674.66;;;8.95;85.09
77639;BME280;66802;52.574;14.398;2023-04-15T06:30:32;100669.44;;;8.94;85.51
77639;BME280;66802;52.574;14.398;2023-04-15T06:32:58;100674.09;;;8.92;85.74
77639;BME280;66802;52.574;14.398;2023-04-15T06:35:24;100673.81;;;8.95;85.66
77639;BME280;66802;52.574;14.398;2023-04-15T06:37:50;100687.41;;;8.93;85.94
77639;BME280;66802;52.574;14.398;2023-04-15T06:40:16;100684.59;;;8.95;85.82
77639;BME280;66802;52.574;14.398;2023-04-15T06:42:41;100689.97;;;8.95;86.46
77639;BME280;66802;52.574;14.398;2023-04-15T06:45:07;100694.38;;;8.96;86.05
77639;BME280;66802;52.574;14.398;2023-04-15T06:47:33;100686.44;;;8.94;86.59
77639;BME280;66802;52.574;14.398;2023-04-15T06:49:59;100690.81;;;8.95;86.41
77639;BME280;66802;52.574;14.398;2023-04-15T06:52:24;100693.06;;;9.00;85.86
77639;BME280;66802;52.574;14.398;2023-04-15T06:54:50;100695.03;;;8.98;86.45
77639;BME280;66802;52.574;14.398;2023-04-15T06:57:16;100698.75;;;8.97;86.41
77639;BME280;66802;52.574;14.398;2023-04-15T06:59:41;100702.72;;;8.93;86.53
77639;BME280;66802;52.574;14.398;2023-04-15T07:02:11;100697.91;;;8.96;86.66
77639;BME280;66802;52.574;14.398;2023-04-15T07:04:37;100702.31;;;8.97;86.18
77639;BME280;66802;52.574;14.398;2023-04-15T07:07:04;100703.56;;;8.93;86.64
77639;BME280;66802;52.574;14.398;2023-04-15T07:09:31;100712.38;;;8.95;86.94
77639;BME280;66802;52.574;14.398;2023-04-15T07:11:56;100714.59;;;9.00;86.42
77639;BME280;66802;52.574;14.398;2023-04-15T07:14:22;100708.09;;;9.02;86.50
77639;BME280;66802;52.574;14.398;2023-04-15T07:16:47;100713.91;;;8.98;86.28
77639;BME280;66802;52.574;14.398;2023-04-15T07:19:13;100719.44;;;8.96;86.78
77639;BME280;66802;52.574;14.398;2023-04-15T07:21:38;100713.06;;;8.97;86.71
77639;BME280;66802;52.574;14.398;2023-04-15T07:24:04;100716.91;;;8.95;86.84
77639;BME280;66802;52.574;14.398;2023-04-15T07:26:30;100701.13;;;9.00;87.00
77639;BME280;66802;52.574;14.398;2023-04-15T07:28:55;100711.78;;;9.01;86.53
77639;BME280;66802;52.574;14.398;2023-04-15T07:31:21;100708.94;;;9.03;86.54
77639;BME280;66802;52.574;14.398;2023-04-15T07:33:46;100714.59;;;9.00;86.91
77639;BME280;66802;52.574;14.398;2023-04-15T07:36:12;100719.00;;;9.01;86.74
77639;BME280;66802;52.574;14.398;2023-04-15T07:38:38;100723.09;;;9.05;86.17
77639;BME280;66802;52.574;14.398;2023-04-15T07:41:04;100720.41;;;9.05;86.35
77639;BME280;66802;52.574;14.398;2023-04-15T07:43:29;100716.03;;;9.04;86.09
77639;BME280;66802;52.574;14.398;2023-04-15T07:45:55;100717.13;;;9.11;85.76
77639;BME280;66802;52.574;14.398;2023-04-15T07:48:20;100721.69;;;9.01;86.45
77639;BME280;66802;52.574;14.398;2023-04-15T07:50:46;100731.03;;;9.06;86.57
77639;BME280;66802;52.574;14.398;2023-04-15T07:53:12;100723.38;;;9.02;87.21
77639;BME280;66802;52.574;14.398;2023-04-15T07:55:38;100728.88;;;9.10;86.63
77639;BME280;66802;52.574;14.398;2023-04-15T07:58:04;100733.16;;;9.12;86.47
77639;BME280;66802;52.574;14.398;2023-04-15T08:00:30;100734.28;;;9.10;86.22
77639;BME280;66802;52.574;14.398;2023-04-15T08:02:56;100728.88;;;9.10;86.75
77639;BME280;66802;52.574;14.398;2023-04-15T08:05:24;100738.97;;;9.08;86.57
77639;BME280;66802;52.574;14.398;2023-04-15T08:07:50;100739.25;;;9.14;86.90
77639;BME280;66802;52.574;14.398;2023-04-15T08:10:16;100744.06;;;9.11;87.08
77639;BME280;66802;52.574;14.398;2023-04-15T08:12:42;100742.53;;;9.08;87.34
77639;BME280;66802;52.574;14.398;2023-04-15T08:15:08;100738.53;;;9.12;86.96
77639;BME280;66802;52.574;14.398;2023-04-15T08:17:34;100739.09;;;9.16;86.69
77639;BME280;66802;52.574;14.398;2023-04-15T08:19:59;100737.66;;;9.22;87.06
77639;BME280;66802;52.574;14.398;2023-04-15T08:22:25;100734.25;;;9.20;86.83
77639;BME280;66802;52.574;14.398;2023-04-15T08:24:51;100736.69;;;9.13;87.32
77639;BME280;66802;52.574;14.398;2023-04-15T08:27:17;100736.53;;;9.24;86.64
77639;BME280;66802;52.574;14.398;2023-04-15T08:29:43;100742.63;;;9.26;86.76
77639;BME280;66802;52.574;14.398;2023-04-15T08:32:10;100742.34;;;9.29;86.63
77639;BME280;66802;52.574;14.398;2023-04-15T08:34:35;100742.34;;;9.29;86.83
77639;BME280;66802;52.574;14.398;2023-04-15T08:37:01;100747.88;;;9.28;87.20
77639;BME280;66802;52.574;14.398;2023-04-15T08:39:26;100749.81;;;9.35;86.97
77639;BME280;66802;52.574;14.398;2023-04-15T08:42:00;100746.00;;;9.38;86.83
77639;BME280;66802;52.574;14.398;2023-04-15T08:44:34;100753.63;;;9.42;87.16
77639;BME280;66802;52.574;14.398;2023-04-15T08:47:02;100755.31;;;9.43;87.33
77639;BME280;66802;52.574;14.398;2023-04-15T08:49:29;100753.03;;;9.48;86.12
77639;BME280;66802;52.574;14.398;2023-04-15T08:51:58;100759.81;;;9.52;86.68
77639;BME280;66802;52.574;14.398;2023-04-15T08:54:25;100757.84;;;9.55;87.22
77639;BME280;66802;52.574;14.398;2023-04-15T08:56:51;100765.66;;;9.48;86.70
77639;BME280;66802;52.574;14.398;2023-04-15T08:59:19;100763.97;;;9.47;86.48
77639;BME280;66802;52.574;14.398;2023-04-15T09:01:48;100767.06;;;9.52;86.59
77639;BME280;66802;52.574;14.398;2023-04-15T09:04:17;100772.63;;;9.50;87.26
77639;BME280;66802;52.574;14.398;2023-04-15T09:06:43;100769.59;;;9.53;86.63
77639;BME280;66802;52.574;14.398;2023-04-15T09:09:09;100771.44;;;9.53;86.39
77639;BME280;66802;52.574;14.398;2023-04-15T09:11:34;100772.88;;;9.57;86.33
77639;BME280;66802;52.574;14.398;2023-04-15T09:14:01;100775.00;;;9.53;86.59
77639;BME280;66802;52.574;14.398;2023-04-15T09:16:26;100772.91;;;9.47;87.11
77639;BME280;66802;52.574;14.398;2023-04-15T09:18:55;100783.06;;;9.53;87.32
77639;BME280;66802;52.574;14.398;2023-04-15T09:21:20;100772.00;;;9.57;87.26
77639;BME280;66802;52.574;14.398;2023-04-15T09:23:58;100776.28;;;9.59;86.94
77639;BME280;66802;52.574;14.398;2023-04-15T09:26:35;100775.28;;;9.60;86.83
77639;BME280;66802;52.574;14.398;2023-04-15T09:29:04;100776.56;;;9.56;87.41
77639;BME280;66802;52.574;14.398;2023-04-15T09:31:33;100782.09;;;9.55;87.10
77639;BME280;66802;52.574;14.398;2023-04-15T09:33:59;100782.50;;;9.60;86.85
77639;BME280;66802;52.574;14.398;2023-04-15T09:36:27;100781.94;;;9.56;87.23
77639;BME280;66802;52.574;14.398;2023-04-15T09:38:59;100785.91;;;9.62;87.42
77639;BME280;66802;52.574;14.398;2023-04-15T09:41:26;100792.69;;;9.66;87.05
77639;BME280;66802;52.574;14.398;2023-04-15T09:43:53;100792.13;;;9.72;87.20
77639;BME280;66802;52.574;14.398;2023-04-15T09:46:18;100791.56;;;9.68;86.69
77639;BME280;66802;52.574;14.398;2023-04-15T09:48:44;100792.41;;;9.69;86.99
77639;BME280;66802;52.574;14.398;2023-04-15T09:51:10;100794.06;;;9.79;86.40
77639;BME280;66802;52.574;14.398;2023-04-15T09:53:36;100799.34;;;9.71;86.71
77639;BME280;66802;52.574;14.398;2023-04-15T09:56:05;100800.63;;;9.67;86.87
77639;BME280;66802;52.574;14.398;2023-04-15T09:58:34;100803.03;;;9.70;86.99
77639;BME280;66802;52.574;14.398;2023-04-15T10:01:03;100807.59;;;9.70;86.93
77639;BME280;66802;52.574;14.398;2023-04-15T10:03:31;100809.28;;;9.71;86.75
77639;BME280;66802;52.574;14.398;2023-04-15T10:06:00;100810.97;;;9.72;86.94
77639;BME280;66802;52.574;14.398;2023-04-15T10:08:31;100812.25;;;9.68;86.75
77639;BME280;66802;52.574;14.398;2023-04-15T10:11:00;100810.41;;;9.68;87.55
77639;BME280;66802;52.574;14.398;2023-04-15T10:13:29;100818.38;;;9.70;87.84
77639;BME280;66802;52.574;14.398;2023-04-15T10:16:05;100814.63;;;9.80;86.81
77639;BME280;66802;52.574;14.398;2023-04-15T10:18:34;100819.75;;;9.83;86.45
77639;BME280;66802;52.574;14.398;2023-04-15T10:21:00;100816.47;;;9.80;87.34
77639;BME280;66802;52.574;14.398;2023-04-15T10:23:27;100819.47;;;9.77;86.45
77639;BME280;66802;52.574;14.398;2023-04-15T10:25:53;100823.28;;;9.74;87.08
77639;BME280;66802;52.574;14.398;2023-04-15T10:28:20;100819.47;;;9.77;87.01
77639;BME280;66802;52.574;14.398;2023-04-15T10:30:49;100818.22;;;9.71;87.68
77639;BME280;66802;52.574;14.398;2023-04-15T10:33:19;100824.72;;;9.78;87.15
77639;BME280;66802;52.574;14.398;2023-04-15T10:35:47;100830.84;;;9.71;87.20
77639;BME280;66802;52.574;14.398;2023-04-15T10:38:43;100833.69;;;9.69;87.82
77639;BME280;66802;52.574;14.398;2023-04-15T10:41:39;100837.50;;;9.67;87.74
77639;BME280;66802;52.574;14.398;2023-04-15T10:44:04;100836.38;;;9.69;87.74
77639;BME280;66802;52.574;14.398;2023-04-15T10:49:09;100842.91;;;9.67;87.72
77639;BME280;66802;52.574;14.398;2023-04-15T10:51:41;100835.25;;;9.72;87.79
77639;BME280;66802;52.574;14.398;2023-04-15T10:54:13;100844.00;;;9.74;87.46
77639;BME280;66802;52.574;14.398;2023-04-15T10:56:44;100836.94;;;9.73;88.07
77639;BME280;66802;52.574;14.398;2023-04-15T10:59:10;100843.72;;;9.77;88.15
77639;BME280;66802;52.574;14.398;2023-04-15T11:02:14;100843.44;;;9.80;87.78
77639;BME280;66802;52.574;14.398;2023-04-15T11:04:56;100846.28;;;9.78;87.87
77639;BME280;66802;52.574;14.398;2023-04-15T11:07:54;100849.94;;;9.87;88.02
77639;BME280;66802;52.574;14.398;2023-04-15T11:13:01;100858.06;;;9.77;88.37
77639;BME280;66802;52.574;14.398;2023-04-15T11:17:55;100860.72;;;9.87;87.74
77639;BME280;66802;52.574;14.398;2023-04-15T11:20:22;100863.56;;;9.85;87.84
77639;BME280;66802;52.574;14.398;2023-04-15T11:22:51;100863.72;;;9.84;87.71
77639;BME280;66802;52.574;14.398;2023-04-15T11:25:31;100873.25;;;9.78;87.78
77639;BME280;66802;52.574;14.398;2023-04-15T11:27:59;100875.38;;;9.75;87.96
77639;BME280;66802;52.574;14.398;2023-04-15T11:30:27;100877.91;;;9.76;88.54
77639;BME280;66802;52.574;14.398;2023-04-15T11:33:00;100871.09;;;9.82;88.68
77639;BME280;66802;52.574;14.398;2023-04-15T11:35:27;100870.38;;;9.89;88.22
77639;BME280;66802;52.574;14.398;2023-04-15T11:37:53;100870.78;;;9.85;88.49
77639;BME280;66802;52.574;14.398;2023-04-15T11:40:24;100870.78;;;9.95;88.24
77639;BME280;66802;52.574;14.398;2023-04-15T11:45:38;100874.03;;;9.98;87.96
77639;BME280;66802;52.574;14.398;2023-04-15T11:48:13;100868.34;;;10.01;87.96
77639;BME280;66802;52.574;14.398;2023-04-15T11:50:41;100878.72;;;9.96;87.85
77639;BME280;66802;52.574;14.398;2023-04-15T11:53:11;100883.91;;;10.07;87.78
77639;BME280;66802;52.574;14.398;2023-04-15T11:55:44;100882.94;;;10.08;87.47
77639;BME280;66802;52.574;14.398;2023-04-15T11:58:18;100893.16;;;10.14;87.60
77639;BME280;66802;52.574;14.398;2023-04-15T12:03:28;100889.88;;;10.11;87.30
77639;BME280;66802;52.574;14.398;2023-04-15T12:11:41;100897.25;;;10.09;87.14
77639;BME280;66802;52.574;14.398;2023-04-15T12:14:09;100895.41;;;10.09;87.32
77639;BME280;66802;52.574;14.398;2023-04-15T12:16:40;100892.16;;;10.15;86.76
77639;BME280;66802;52.574;14.398;2023-04-15T12:19:10;100889.88;;;10.11;86.66
77639;BME280;66802;52.574;14.398;2023-04-15T12:21:39;100890.13;;;10.17;87.08
77639;BME280;66802;52.574;14.398;2023-04-15T12:24:07;100886.75;;;10.25;86.50
77639;BME280;66802;52.574;14.398;2023-04-15T12:29:06;100897.22;;;10.28;87.09
77639;BME280;66802;52.574;14.398;2023-04-15T12:31:34;100894.78;;;10.35;86.28
77639;BME280;66802;52.574;14.398;2023-04-15T12:34:01;100903.44;;;10.38;86.15
77639;BME280;66802;52.574;14.398;2023-04-15T12:36:27;100911.84;;;10.35;86.99
77639;BME280;66802;52.574;14.398;2023-04-15T12:38:54;100911.38;;;10.40;87.01
77639;BME280;66802;52.574;14.398;2023-04-15T12:41:20;100910.78;;;10.46;87.19
77639;BME280;66802;52.574;14.398;2023-04-15T12:43:46;100916.44;;;10.52;87.05
77639;BME280;66802;52.574;14.398;2023-04-15T12:46:12;100915.00;;;10.58;86.47
77639;BME280;66802;52.574;14.398;2023-04-15T12:48:39;100918.69;;;10.57;86.86
77639;BME280;66802;52.574;14.398;2023-04-15T12:51:04;100922.78;;;10.61;86.88
77639;BME280;66802;52.574;14.398;2023-04-15T12:53:30;100922.88;;;10.69;86.79
77639;BME280;66802;52.574;14.398;2023-04-15T12:55:56;100928.03;;;10.63;86.93
77639;BME280;66802;52.574;14.398;2023-04-15T12:58:21;100934.47;;;10.79;86.76
77639;BME280;66802;52.574;14.398;2023-04-15T13:00:47;100930.59;;;10.82;87.50
77639;BME280;66802;52.574;14.398;2023-04-15T13:03:14;100929.78;;;10.81;87.26
77639;BME280;66802;52.574;14.398;2023-04-15T13:05:40;100942.06;;;10.93;86.11
77639;BME280;66802;52.574;14.398;2023-04-15T13:08:05;100938.28;;;10.86;86.94
77639;BME280;66802;52.574;14.398;2023-04-15T13:10:31;100935.13;;;10.91;86.44
77639;BME280;66802;52.574;14.398;2023-04-15T13:12:57;100943.06;;;10.92;86.37
77639;BME280;66802;52.574;14.398;2023-04-15T13:15:23;100943.16;;;11.01;86.22
77639;BME280;66802;52.574;14.398;2023-04-15T13:17:50;100941.84;;;11.05;86.24
77639;BME280;66802;52.574;14.398;2023-04-15T13:20:16;100950.28;;;11.02;85.70
77639;BME280;66802;52.574;14.398;2023-04-15T13:22:41;100952.81;;;11.03;85.58
77639;BME280;66802;52.574;14.398;2023-04-15T13:25:07;100949.78;;;11.06;85.49
77639;BME280;66802;52.574;14.398;2023-04-15T13:27:33;100953.66;;;11.04;85.42
77639;BME280;66802;52.574;14.398;2023-04-15T13:29:59;100952.75;;;11.13;84.75
77639;BME280;66802;52.574;14.398;2023-04-15T13:32:25;100955.28;;;11.14;85.20
77639;BME280;66802;52.574;14.398;2023-04-15T13:34:51;100955.75;;;11.10;86.02
77639;BME280;66802;52.574;14.398;2023-04-15T13:37:16;100959.53;;;11.17;85.43
77639;BME280;66802;52.574;14.398;2023-04-15T13:39:42;100953.69;;;11.21;84.23
77639;BME280;66802;52.574;14.398;2023-04-15T13:42:08;100967.03;;;11.23;83.59
77639;BME280;66802;52.574;14.398;2023-04-15T13:44:34;100972.97;;;11.09;84.50
77639;BME280;66802;52.574;14.398;2023-04-15T13:47:00;100974.66;;;11.10;83.94
77639;BME280;66802;52.574;14.398;2023-04-15T13:49:26;100972.97;;;11.09;83.66
77639;BME280;66802;52.574;14.398;2023-04-15T13:51:51;100977.75;;;11.15;84.84
77639;BME280;66802;52.574;14.398;2023-04-15T13:54:17;100979.78;;;11.13;84.14
77639;BME280;66802;52.574;14.398;2023-04-15T13:56:42;100984.31;;;11.12;84.02
77639;BME280;66802;52.574;14.398;2023-04-15T13:59:11;100978.06;;;11.12;83.69
77639;BME280;66802;52.574;14.398;2023-04-15T14:01:37;100977.53;;;11.08;84.17
77639;BME280;66802;52.574;14.398;2023-04-15T14:04:03;100980.38;;;11.07;84.43
77639;BME280;66802;52.574;14.398;2023-04-15T14:06:29;100980.06;;;11.10;84.01
77639;BME280;66802;52.574;14.398;2023-04-15T14:08:55;100982.78;;;11.10;83.66
77639;BME280;66802;52.574;14.398;2023-04-15T14:11:21;100990.16;;;11.08;84.32
77639;BME280;66802;52.574;14.398;2023-04-15T14:13:47;100987.25;;;11.01;84.65
77639;BME280;66802;52.574;14.398;2023-04-15T14:16:12;100989.78;;;11.03;85.29
77639;BME280;66802;52.574;14.398;2023-04-15T14:18:39;100991.88;;;11.09;85.00
77639;BME280;66802;52.574;14.398;2023-04-15T14:21:05;100991.72;;;11.10;85.17
77639;BME280;66802;52.574;14.398;2023-04-15T14:23:31;100995.28;;;11.11;84.84
77639;BME280;66802;52.574;14.398;2023-04-15T14:25:57;100999.28;;;11.07;84.80
77639;BME280;66802;52.574;14.398;2023-04-15T14:28:23;101003.75;;;11.16;83.38
77639;BME280;66802;52.574;14.398;2023-04-15T14:30:49;101002.28;;;11.04;84.86
77639;BME280;66802;52.574;14.398;2023-04-15T14:33:14;101006.69;;;11.05;84.74
77639;BME280;66802;52.574;14.398;2023-04-15T14:35:40;101013.34;;;11.10;84.27
77639;BME280;66802;52.574;14.398;2023-04-15T14:38:06;101008.72;;;11.03;84.65
77639;BME280;66802;52.574;14.398;2023-04-15T14:40:35;101009.38;;;11.05;85.16
77639;BME280;66802;52.574;14.398;2023-04-15T14:43:00;101016.09;;;11.01;85.29
77639;BME280;66802;52.574;14.398;2023-04-15T14:45:26;101009.38;;;11.05;85.16
77639;BME280;66802;52.574;14.398;2023-04-15T14:47:52;101012.09;;;11.05;86.01
77639;BME280;66802;52.574;14.398;2023-04-15T14:50:18;101017.59;;;11.13;85.18
77639;BME280;66802;52.574;14.398;2023-04-15T14:52:44;101020.19;;;11.05;84.88
77639;BME280;66802;52.574;14.398;2023-04-15T14:55:11;101020.19;;;11.05;85.02
77639;BME280;66802;52.574;14.398;2023-04-15T14:57:38;101026.16;;;11.08;85.12
77639;BME280;66802;52.574;14.398;2023-04-15T15:00:04;101035.53;;;11.14;84.86
77639;BME280;66802;52.574;14.398;2023-04-15T15:02:32;101028.41;;;11.13;84.91
77639;BME280;66802;52.574;14.398;2023-04-15T15:05:00;101038.91;;;11.16;85.29
77639;BME280;66802;52.574;14.398;2023-04-15T15:07:26;101039.31;;;11.21;84.48
77639;BME280;66802;52.574;14.398;2023-04-15T15:09:52;101052.25;;;11.17;85.18
77639;BME280;66802;52.574;14.398;2023-04-15T15:12:20;101046.09;;;11.25;85.25
77639;BME280;66802;52.574;14.398;2023-04-15T15:14:48;101050.97;;;11.21;84.32
77639;BME280;66802;52.574;14.398;2023-04-15T15:17:14;101049.41;;;11.19;84.37
77639;BME280;66802;52.574;14.398;2023-04-15T15:19:40;101050.03;;;11.13;84.41
77639;BME280;66802;52.574;14.398;2023-04-15T15:22:05;101062.41;;;11.06;85.53
77639;BME280;66802;52.574;14.398;2023-04-15T15:24:31;101055.91;;;10.98;85.89
77639;BME280;66802;52.574;14.398;2023-04-15T15:26:57;101060.31;;;11.00;85.66
77639;BME280;66802;52.574;14.398;2023-04-15T15:29:22;101065.25;;;11.04;85.57
77639;BME280;66802;52.574;14.398;2023-04-15T15:31:48;101067.09;;;11.04;85.38
77639;BME280;66802;52.574;14.398;2023-04-15T15:34:15;101066.09;;;11.05;85.48
77639;BME280;66802;52.574;14.398;2023-04-15T15:36:41;101076.78;;;11.06;86.10
77639;BME280;66802;52.574;14.398;2023-04-15T15:39:07;101070.88;;;11.20;85.55
77639;BME280;66802;52.574;14.398;2023-04-15T15:41:36;101082.41;;;11.22;85.49
77639;BME280;66802;52.574;14.398;2023-04-15T15:44:01;101076.44;;;11.19;85.34
77639;BME280;66802;52.574;14.398;2023-04-15T15:46:27;101079.28;;;11.17;85.11
77639;BME280;66802;52.574;14.398;2023-04-15T15:48:56;101087.69;;;11.14;84.63
77639;BME280;66802;52.574;14.398;2023-04-15T15:51:22;101080.75;;;11.12;85.38
77639;BME280;66802;52.574;14.398;2023-04-15T15:53:48;101094.97;;;11.14;85.41
77639;BME280;66802;52.574;14.398;2023-04-15T15:56:14;101084.44;;;11.11;85.27
77639;BME280;66802;52.574;14.398;2023-04-15T15:58:40;101088.84;;;11.12;85.20
77639;BME280;66802;52.574;14.398;2023-04-15T16:01:06;101084.50;;;11.01;85.95
77639;BME280;66802;52.574;14.398;2023-04-15T16:03:31;101091.75;;;11.01;85.93
77639;BME280;66802;52.574;14.398;2023-04-15T16:05:57;101092.59;;;11.01;85.00
77639;BME280;66802;52.574;14.398;2023-04-15T16:08:23;101099.53;;;11.04;85.40